Time;durP1;ratioP1;P1;durP2;ratioP2;P2;SDS_P1;SDS_P2;PMS_P1;PMS_P2;Temp;Humidity;BMP_temperature;BMP_pressure;BME280_temperature;BME280_humidity;BME280_pressure;Samples;Min_cycle;Max_cycle;Signal;HPM_P1;HPM_P2
2022/12/03 00:01:56;;;;;;;15.13;11.53;;;9.50;64.30;;;;;;5051300;28;20208;-59
2022/12/03 00:04:22;;;;;;;19.30;10.90;;;9.50;64.20;;;;;;5055846;28;20222;-59
2022/12/03 00:06:47;;;;;;;15.30;11.33;;;9.60;64.00;;;;;;5042215;28;20193;-59
2022/12/03 00:09:13;;;;;;;15.77;12.50;;;9.60;63.70;;;;;;5050805;28;20223;-59
2022/12/03 00:11:38;;;;;;;15.80;10.67;;;9.60;63.60;;;;;;5052306;28;20227;-59
2022/12/03 00:14:04;;;;;;;15.97;11.60;;;9.60;63.40;;;;;;5060445;28;20275;-59
2022/12/03 00:16:30;;;;;;;15.20;10.90;;;9.60;63.20;;;;;;5049564;28;20192;-61
2022/12/03 00:18:55;;;;;;;17.47;13.33;;;9.60;63.20;;;;;;5053607;28;20200;-60
2022/12/03 00:21:21;;;;;;;13.13;10.17;;;9.70;63.30;;;;;;5051893;28;20207;-59
2022/12/03 00:23:46;;;;;;;15.40;11.50;;;9.70;63.10;;;;;;5056550;28;20315;-59
2022/12/03 00:26:12;;;;;;;14.50;10.27;;;9.70;63.00;;;;;;5049529;28;20196;-60
2022/12/03 00:28:37;;;;;;;16.07;10.47;;;9.70;63.00;;;;;;5048588;28;20215;-59
2022/12/03 00:31:03;;;;;;;16.90;10.60;;;9.70;62.90;;;;;;5056899;28;20267;-59
2022/12/03 00:33:30;;;;;;;19.43;12.80;;;9.70;62.90;;;;;;5058307;28;20620;-59
2022/12/03 00:35:55;;;;;;;18.90;11.90;;;9.70;62.90;;;;;;5050787;28;20271;-59
2022/12/03 00:38:21;;;;;;;16.17;12.40;;;9.70;63.00;;;;;;5051166;28;20435;-59
2022/12/03 00:40:46;;;;;;;16.40;11.30;;;9.70;63.00;;;;;;5046417;28;20211;-59
2022/12/03 00:43:12;;;;;;;14.40;11.40;;;9.70;63.10;;;;;;5054905;28;20194;-59
2022/12/03 00:45:37;;;;;;;14.33;10.97;;;9.70;63.20;;;;;;5057031;28;21156;-59
2022/12/03 00:48:03;;;;;;;15.57;11.43;;;9.70;63.20;;;;;;5051969;28;20200;-59
2022/12/03 00:50:29;;;;;;;14.03;10.70;;;9.80;63.20;;;;;;5054344;28;20288;-59
2022/12/03 00:52:54;;;;;;;16.30;11.70;;;9.80;63.00;;;;;;5053083;28;20219;-59
2022/12/03 00:55:20;;;;;;;22.47;14.80;;;9.80;62.90;;;;;;5052584;28;21552;-59
2022/12/03 00:57:46;;;;;;;22.47;15.33;;;9.90;62.70;;;;;;5046453;28;20224;-59
2022/12/03 01:00:12;;;;;;;19.57;13.57;;;9.90;62.60;;;;;;5044959;28;20673;-59
2022/12/03 01:02:38;;;;;;;19.53;13.80;;;9.90;62.70;;;;;;5050448;28;20211;-59
2022/12/03 01:05:05;;;;;;;15.87;12.57;;;9.80;62.70;;;;;;5049683;28;20477;-59
2022/12/03 01:07:30;;;;;;;17.47;12.30;;;9.80;62.70;;;;;;5052607;28;20188;-59
2022/12/03 01:09:56;;;;;;;17.40;12.57;;;9.80;62.90;;;;;;5043349;28;20514;-59
2022/12/03 01:12:21;;;;;;;15.90;11.43;;;9.80;62.90;;;;;;5048494;28;20187;-59
2022/12/03 01:14:47;;;;;;;16.47;10.80;;;9.80;63.00;;;;;;5043341;28;20310;-60
2022/12/03 01:17:13;;;;;;;18.00;12.47;;;9.80;63.20;;;;;;5050793;28;20262;-59
2022/12/03 01:19:39;;;;;;;17.17;13.30;;;9.70;63.50;;;;;;5049787;28;20193;-59
2022/12/03 01:22:06;;;;;;;19.13;11.20;;;9.70;63.80;;;;;;5050099;28;20571;-60
2022/12/03 01:24:38;;;;;;;15.20;11.03;;;9.70;63.70;;;;;;5066769;28;21336;-60
2022/12/03 01:27:04;;;;;;;17.10;12.00;;;9.70;63.50;;;;;;5063663;28;20442;-60
2022/12/03 01:29:29;;;;;;;14.83;11.10;;;9.70;63.50;;;;;;5066673;28;20560;-61
2022/12/03 01:34:39;;;;;;;15.43;10.73;;;9.80;63.50;;;;;;5059361;28;20246;-61
2022/12/03 01:37:04;;;;;;;14.60;10.30;;;9.80;63.40;;;;;;5056017;28;20439;-60
2022/12/03 01:39:30;;;;;;;14.60;10.43;;;9.80;63.40;;;;;;5064880;28;20200;-61
2022/12/03 01:41:57;;;;;;;13.10;10.30;;;9.70;63.60;;;;;;5066038;28;20195;-58
2022/12/03 01:44:26;;;;;;;12.83;10.27;;;9.70;63.60;;;;;;5055533;28;20698;-60
2022/12/03 01:46:54;;;;;;;14.30;10.13;;;9.60;63.90;;;;;;5068865;28;20446;-59
2022/12/03 01:49:25;;;;;;;15.40;10.13;;;9.60;63.90;;;;;;5066988;28;20480;-60
2022/12/03 01:51:52;;;;;;;15.00;10.60;;;9.50;63.80;;;;;;5064486;28;20486;-61
2022/12/03 01:54:25;;;;;;;13.67;10.00;;;9.60;64.10;;;;;;5059573;28;20454;-60
2022/12/03 01:56:52;;;;;;;16.60;10.80;;;9.60;63.80;;;;;;5060936;28;21004;-60
2022/12/03 01:59:21;;;;;;;14.03;11.53;;;9.70;64.30;;;;;;5053766;28;20446;-61
2022/12/03 02:01:46;;;;;;;15.17;10.93;;;9.70;64.30;;;;;;5050253;28;20471;-58
2022/12/03 02:04:14;;;;;;;15.10;10.37;;;9.80;65.10;;;;;;5053583;28;20926;-59
2022/12/03 02:06:41;;;;;;;14.70;11.10;;;9.80;63.90;;;;;;5063656;28;20208;-59
2022/12/03 02:09:10;;;;;;;13.80;10.30;;;9.70;63.40;;;;;;5059714;28;20442;-58
2022/12/03 02:11:39;;;;;;;14.60;11.13;;;9.70;63.80;;;;;;5057505;28;20441;-60
2022/12/03 02:14:09;;;;;;;14.00;10.77;;;9.70;63.50;;;;;;5055486;28;20440;-61
2022/12/03 02:16:37;;;;;;;14.43;10.60;;;9.60;63.70;;;;;;5050730;28;20518;-60
2022/12/03 02:19:06;;;;;;;17.30;11.00;;;9.70;63.60;;;;;;5054831;28;20451;-60
2022/12/03 02:22:12;;;;;;;15.90;12.30;;;9.60;63.10;;;;;;5049114;28;20446;-58
2022/12/03 02:24:45;;;;;;;14.27;10.07;;;9.70;63.20;;;;;;5051014;28;20494;-61
2022/12/03 02:27:11;;;;;;;17.90;11.40;;;9.80;63.20;;;;;;5053375;28;20454;-61
2022/12/03 02:29:36;;;;;;;17.23;11.43;;;9.80;63.10;;;;;;5055817;28;20460;-60
2022/12/03 02:32:02;;;;;;;17.67;11.27;;;9.90;63.10;;;;;;5055380;28;20189;-60
2022/12/03 02:34:32;;;;;;;16.07;10.77;;;9.80;63.00;;;;;;5048164;28;20197;-62
2022/12/03 02:36:58;;;;;;;10.73;9.30;;;9.80;63.20;;;;;;5034663;28;21288;-60
2022/12/03 02:39:24;;;;;;;15.30;11.67;;;9.80;63.40;;;;;;5040536;28;20443;-60
2022/12/03 02:44:34;;;;;;;13.07;10.13;;;9.80;63.60;;;;;;5036159;28;20250;-61
2022/12/03 02:47:00;;;;;;;13.90;10.90;;;9.80;63.90;;;;;;5038784;28;20447;-60
2022/12/03 02:49:25;;;;;;;14.57;10.80;;;9.80;63.90;;;;;;5041484;28;20200;-58
2022/12/03 02:51:51;;;;;;;11.50;9.83;;;9.90;63.80;;;;;;5033124;28;20802;-58
2022/12/03 02:54:17;;;;;;;15.23;10.27;;;9.90;63.70;;;;;;5036573;28;20192;-58
2022/12/03 02:56:42;;;;;;;14.07;10.57;;;9.90;63.60;;;;;;5038603;28;20285;-58
2022/12/03 02:59:08;;;;;;;13.80;10.63;;;9.90;63.60;;;;;;5043451;28;20199;-59
2022/12/03 03:01:33;;;;;;;14.93;10.80;;;9.90;63.50;;;;;;5045336;28;20191;-60
2022/12/03 03:04:00;;;;;;;15.83;12.00;;;9.90;64.20;;;;;;5039420;28;20224;-60
2022/12/03 03:06:26;;;;;;;18.30;12.40;;;9.80;63.50;;;;;;5046680;28;20192;-60
2022/12/03 03:08:51;;;;;;;16.57;11.50;;;9.80;63.70;;;;;;5040198;28;20455;-60
2022/12/03 03:11:17;;;;;;;15.97;10.90;;;9.80;63.40;;;;;;5039313;28;20185;-60
2022/12/03 03:13:43;;;;;;;15.30;11.17;;;9.80;63.10;;;;;;5039112;28;20197;-60
2022/12/03 03:16:09;;;;;;;19.50;12.57;;;9.90;63.00;;;;;;5039625;28;20275;-60
2022/12/03 03:18:35;;;;;;;18.43;12.13;;;9.90;62.90;;;;;;5046567;28;20618;-60
2022/12/03 03:21:01;;;;;;;16.13;11.80;;;9.90;62.70;;;;;;5042781;28;20193;-60
2022/12/03 03:23:27;;;;;;;15.37;11.57;;;9.70;62.30;;;;;;5052092;28;20487;-60
2022/12/03 03:26:00;;;;;;;15.50;11.17;;;9.60;63.40;;;;;;5047747;28;20485;-60
2022/12/03 03:28:27;;;;;;;18.83;12.63;;;9.70;63.60;;;;;;5042653;28;20679;-61
2022/12/03 03:30:53;;;;;;;14.57;11.47;;;9.70;63.50;;;;;;5040292;28;20444;-60
2022/12/03 03:33:19;;;;;;;15.20;10.40;;;9.80;63.40;;;;;;5046722;28;20450;-60
2022/12/03 03:35:47;;;;;;;16.97;12.07;;;9.80;63.70;;;;;;5037526;28;20451;-60
2022/12/03 03:38:13;;;;;;;16.80;11.80;;;9.80;63.70;;;;;;5044323;28;20197;-60
2022/12/03 03:40:39;;;;;;;19.10;12.03;;;9.90;63.80;;;;;;5046969;28;20521;-60
2022/12/03 03:43:05;;;;;;;17.90;12.27;;;9.70;63.50;;;;;;5043397;28;20528;-61
2022/12/03 03:45:31;;;;;;;14.50;11.27;;;9.80;63.70;;;;;;5051893;28;20533;-61
2022/12/03 03:47:59;;;;;;;15.20;11.80;;;9.80;63.70;;;;;;5043116;28;20613;-61
2022/12/03 03:50:26;;;;;;;16.90;12.50;;;9.90;63.60;;;;;;5047425;28;20931;-61
2022/12/03 03:52:53;;;;;;;15.03;11.90;;;9.90;63.70;;;;;;5045613;28;20484;-60
2022/12/03 03:55:19;;;;;;;17.73;13.00;;;9.90;63.40;;;;;;5043887;28;20431;-59
2022/12/03 03:57:45;;;;;;;16.13;11.63;;;9.90;63.30;;;;;;5043010;28;20945;-59
2022/12/03 04:00:11;;;;;;;18.20;13.23;;;10.00;62.00;;;;;;5044054;28;20918;-59
2022/12/03 04:02:37;;;;;;;18.27;11.97;;;10.00;61.80;;;;;;5038556;28;20473;-59
2022/12/03 04:05:03;;;;;;;15.60;11.50;;;10.00;61.80;;;;;;5049118;28;20562;-58
2022/12/03 04:07:29;;;;;;;17.33;12.30;;;10.00;61.60;;;;;;5044094;28;20196;-58
2022/12/03 04:09:54;;;;;;;14.23;11.00;;;10.00;61.50;;;;;;5038642;28;20432;-58
2022/12/03 04:15:05;;;;;;;14.50;11.23;;;10.10;61.40;;;;;;5042536;28;20652;-61
2022/12/03 04:17:30;;;;;;;15.57;11.90;;;10.00;61.30;;;;;;5047604;28;20439;-60
2022/12/03 04:19:56;;;;;;;17.03;10.83;;;10.00;61.40;;;;;;5046163;28;20439;-60
2022/12/03 04:22:39;;;;;;;15.20;10.43;;;10.00;61.40;;;;;;5045727;28;20659;-61
2022/12/03 04:30:35;;;;;;;16.93;11.13;;;10.00;61.70;;;;;;5032935;28;21004;-61
2022/12/03 04:35:45;;;;;;;18.63;12.73;;;10.00;61.80;;;;;;5042545;28;20799;-61
2022/12/03 04:38:15;;;;;;;19.97;13.57;;;10.00;61.70;;;;;;5047746;28;20439;-58
2022/12/03 04:40:59;;;;;;;15.73;11.90;;;9.90;62.60;;;;;;5041644;28;20276;-58
2022/12/03 04:43:25;;;;;;;15.47;11.20;;;9.80;63.00;;;;;;5039533;28;20487;-58
2022/12/03 04:45:51;;;;;;;18.73;12.40;;;9.70;62.80;;;;;;5041406;28;20946;-58
2022/12/03 04:48:17;;;;;;;19.30;13.00;;;9.50;63.20;;;;;;5050514;28;20439;-60
2022/12/03 04:50:42;;;;;;;17.33;12.13;;;9.60;63.50;;;;;;5037950;28;20203;-61
2022/12/03 04:53:08;;;;;;;19.90;13.37;;;9.60;63.30;;;;;;5050365;28;20198;-60
2022/12/03 04:55:34;;;;;;;22.97;13.07;;;9.50;63.50;;;;;;5046039;28;20627;-60
2022/12/03 04:57:59;;;;;;;19.50;13.60;;;9.60;63.60;;;;;;5045702;28;20465;-58
2022/12/03 05:00:25;;;;;;;21.00;13.60;;;9.70;63.00;;;;;;5040607;28;20188;-58
2022/12/03 05:02:50;;;;;;;20.47;12.87;;;9.80;62.70;;;;;;5048594;28;20632;-58
2022/12/03 05:05:16;;;;;;;19.20;12.90;;;9.80;63.20;;;;;;5039267;28;20605;-58
2022/12/03 05:07:42;;;;;;;21.00;12.80;;;9.80;62.60;;;;;;5041992;28;20188;-59
2022/12/03 05:10:09;;;;;;;18.03;12.70;;;9.80;62.80;;;;;;5044815;28;20193;-58
2022/12/03 05:12:34;;;;;;;21.97;13.27;;;9.70;62.80;;;;;;5042504;28;20230;-59
2022/12/03 05:15:00;;;;;;;23.87;14.33;;;9.80;62.90;;;;;;5047253;28;21262;-59
2022/12/03 05:17:26;;;;;;;19.93;13.40;;;9.70;63.00;;;;;;5046563;28;20188;-58
2022/12/03 05:22:36;;;;;;;20.50;13.27;;;9.80;62.90;;;;;;5041303;28;20247;-58
2022/12/03 05:25:02;;;;;;;17.37;12.73;;;9.80;62.70;;;;;;5048137;28;21151;-61
2022/12/03 05:27:27;;;;;;;21.27;15.50;;;9.80;62.80;;;;;;5047510;28;20570;-60
2022/12/03 05:29:53;;;;;;;25.57;14.40;;;9.70;63.10;;;;;;5048692;28;20450;-60
2022/12/03 05:32:19;;;;;;;18.83;12.90;;;9.80;63.20;;;;;;5044871;28;20199;-59
2022/12/03 05:34:45;;;;;;;20.73;12.50;;;9.80;63.10;;;;;;5039233;28;20291;-58
2022/12/03 05:37:10;;;;;;;23.80;13.90;;;9.80;62.90;;;;;;5044459;28;20565;-58
2022/12/03 05:39:36;;;;;;;16.63;11.83;;;9.90;62.80;;;;;;5054003;28;20287;-58
2022/12/03 05:44:45;;;;;;;19.13;13.30;;;9.90;62.90;;;;;;5049268;28;20215;-58
2022/12/03 05:47:11;;;;;;;17.57;12.17;;;9.80;62.70;;;;;;5045592;28;20926;-58
2022/12/03 05:49:36;;;;;;;19.80;12.90;;;9.80;62.70;;;;;;5043515;28;20196;-58
2022/12/03 05:52:02;;;;;;;17.57;12.07;;;9.90;62.80;;;;;;5049036;28;20688;-58
2022/12/03 05:54:28;;;;;;;18.50;13.57;;;9.90;62.70;;;;;;5047320;28;20210;-58
2022/12/03 05:56:53;;;;;;;19.40;13.30;;;9.90;63.60;;;;;;5051848;28;20207;-58
2022/12/03 05:59:19;;;;;;;19.83;13.70;;;9.90;62.90;;;;;;5043361;28;20219;-58
2022/12/03 06:01:44;;;;;;;20.90;14.10;;;9.90;63.10;;;;;;5047612;28;20542;-58
2022/12/03 06:04:10;;;;;;;19.93;12.00;;;10.00;61.90;;;;;;5036833;28;20228;-60
2022/12/03 06:06:36;;;;;;;20.60;13.77;;;10.00;62.00;;;;;;5047826;28;20200;-58
2022/12/03 06:09:02;;;;;;;21.57;14.73;;;10.00;61.90;;;;;;5038685;28;20220;-58
2022/12/03 06:11:29;;;;;;;20.17;13.87;;;10.00;61.40;;;;;;5053235;28;20281;-58
2022/12/03 06:13:54;;;;;;;20.17;14.43;;;9.90;62.60;;;;;;5049870;28;20441;-58
2022/12/03 06:16:20;;;;;;;25.07;14.47;;;9.90;62.90;;;;;;5042860;28;20532;-58
2022/12/03 06:18:46;;;;;;;21.83;14.30;;;9.80;62.90;;;;;;5046084;28;20189;-58
2022/12/03 06:21:11;;;;;;;23.23;13.33;;;9.80;63.00;;;;;;5032345;28;20440;-58
2022/12/03 06:23:43;;;;;;;25.30;13.37;;;9.90;63.00;;;;;;5041751;28;20390;-58
2022/12/03 06:26:13;;;;;;;19.53;14.10;;;9.90;63.00;;;;;;5038642;28;20259;-61
2022/12/03 06:28:38;;;;;;;14.53;11.10;;;9.90;62.70;;;;;;5044261;28;20852;-59
2022/12/03 06:31:04;;;;;;;18.13;11.80;;;9.90;63.90;;;;;;5040193;28;20443;-59
2022/12/03 06:33:30;;;;;;;21.30;13.17;;;10.10;64.60;;;;;;5041049;28;20206;-59
2022/12/03 06:35:55;;;;;;;23.27;12.23;;;10.40;65.40;;;;;;5039759;28;20185;-59
2022/12/03 06:38:21;;;;;;;22.90;14.70;;;10.70;65.60;;;;;;5044834;28;20205;-59
2022/12/03 06:40:47;;;;;;;18.47;11.70;;;10.90;64.20;;;;;;5043313;28;20200;-59
2022/12/03 06:43:12;;;;;;;17.17;12.30;;;11.00;62.70;;;;;;5040831;28;20653;-59
2022/12/03 06:45:38;;;;;;;20.10;13.00;;;11.10;62.40;;;;;;5037445;28;20268;-59
2022/12/03 06:48:04;;;;;;;18.17;12.70;;;11.20;62.10;;;;;;5042533;28;20196;-59
2022/12/03 06:50:29;;;;;;;23.43;12.87;;;11.40;61.70;;;;;;5043462;28;20200;-59
2022/12/03 06:52:55;;;;;;;19.20;14.00;;;11.50;60.80;;;;;;5042800;28;20535;-59
2022/12/03 06:55:20;;;;;;;19.03;13.40;;;11.60;60.20;;;;;;5049458;28;20189;-59
2022/12/03 06:57:46;;;;;;;19.83;13.53;;;11.70;59.60;;;;;;5046533;28;20209;-59
2022/12/03 07:00:12;;;;;;;21.23;13.27;;;11.80;59.10;;;;;;5042683;28;20816;-59
2022/12/03 07:02:38;;;;;;;19.20;12.87;;;11.60;57.70;;;;;;5046988;28;20196;-59
2022/12/03 07:05:04;;;;;;;20.60;13.03;;;11.70;58.40;;;;;;5040856;28;20442;-59
2022/12/03 07:07:29;;;;;;;19.80;12.80;;;11.80;58.60;;;;;;5046954;28;20193;-59
2022/12/03 07:09:55;;;;;;;18.30;13.20;;;11.90;58.20;;;;;;5049212;28;20493;-59
2022/12/03 07:12:20;;;;;;;18.50;13.53;;;11.90;58.00;;;;;;5050313;28;20201;-59
2022/12/03 07:14:46;;;;;;;19.90;14.90;;;12.00;58.00;;;;;;5040554;28;20193;-59
2022/12/03 07:17:12;;;;;;;22.57;14.83;;;12.00;57.20;;;;;;5040066;28;20644;-59
2022/12/03 07:19:37;;;;;;;21.07;14.97;;;11.90;56.30;;;;;;5041133;28;20193;-59
2022/12/03 07:22:03;;;;;;;22.20;14.77;;;11.80;56.30;;;;;;5035852;28;20555;-60
2022/12/03 07:24:28;;;;;;;22.17;15.50;;;11.70;56.40;;;;;;5044118;28;20331;-59
2022/12/03 07:26:54;;;;;;;24.17;15.00;;;11.60;56.40;;;;;;5040091;28;20200;-59
2022/12/03 07:29:20;;;;;;;24.80;16.87;;;11.40;56.60;;;;;;5045150;28;20199;-59
2022/12/03 07:31:45;;;;;;;27.97;17.10;;;11.30;57.20;;;;;;5047168;28;20193;-59
2022/12/03 07:34:11;;;;;;;26.43;16.60;;;11.00;57.30;;;;;;5051045;28;20231;-59
2022/12/03 07:36:36;;;;;;;26.40;16.97;;;11.00;58.00;;;;;;5043741;28;20184;-60
2022/12/03 07:39:02;;;;;;;22.40;14.37;;;10.80;58.30;;;;;;5041055;28;20205;-59
2022/12/03 07:41:28;;;;;;;25.37;15.43;;;10.80;58.40;;;;;;5046124;28;20206;-59
2022/12/03 07:43:53;;;;;;;26.90;15.83;;;10.70;58.20;;;;;;5040079;28;20491;-59
2022/12/03 07:46:19;;;;;;;24.80;16.70;;;10.70;58.60;;;;;;5038296;28;20185;-60
2022/12/03 07:48:45;;;;;;;23.33;15.00;;;10.80;58.60;;;;;;5037487;28;20189;-60
2022/12/03 07:51:10;;;;;;;22.03;13.87;;;10.90;58.30;;;;;;5034317;28;20185;-60
2022/12/03 07:53:36;;;;;;;23.60;14.60;;;10.80;58.00;;;;;;5039140;28;20245;-59
2022/12/03 07:56:03;;;;;;;24.60;15.77;;;10.70;58.40;;;;;;5038824;28;20203;-60
2022/12/03 07:58:29;;;;;;;22.73;15.90;;;10.80;59.00;;;;;;5042891;28;20211;-60
2022/12/03 08:00:55;;;;;;;23.00;15.10;;;10.80;58.70;;;;;;5042702;28;20431;-59
2022/12/03 08:03:21;;;;;;;27.27;17.03;;;10.90;58.70;;;;;;5048965;28;20498;-60
2022/12/03 08:05:46;;;;;;;19.40;13.33;;;11.00;58.40;;;;;;5040779;28;20440;-59
2022/12/03 08:08:12;;;;;;;22.20;13.60;;;11.00;58.20;;;;;;5046123;28;20189;-59
2022/12/03 08:10:38;;;;;;;23.80;15.57;;;10.90;58.10;;;;;;5041207;28;20188;-59
2022/12/03 08:13:11;;;;;;;24.00;14.60;;;11.00;58.30;;;;;;5047399;28;20298;-59
2022/12/03 08:15:37;;;;;;;23.87;13.90;;;11.00;58.50;;;;;;5040989;28;20192;-59
2022/12/03 08:18:11;;;;;;;25.73;15.73;;;11.00;58.30;;;;;;5038189;28;20496;-61
2022/12/03 08:20:39;;;;;;;26.83;16.00;;;10.80;58.60;;;;;;5044658;28;20216;-60
2022/12/03 08:23:16;;;;;;;24.90;15.63;;;10.70;58.70;;;;;;5037533;28;20491;-60
2022/12/03 08:25:43;;;;;;;24.83;15.83;;;10.70;59.00;;;;;;5033665;28;20446;-59
2022/12/03 08:28:26;;;;;;;27.37;16.90;;;10.90;58.60;;;;;;5037319;28;20798;-60
2022/12/03 08:31:11;;;;;;;24.83;15.67;;;10.80;58.50;;;;;;5039423;28;20450;-59
2022/12/03 08:33:38;;;;;;;23.77;15.60;;;10.80;58.80;;;;;;5044781;28;20452;-59
2022/12/03 08:36:22;;;;;;;21.40;14.57;;;10.70;58.20;;;;;;5044930;28;20533;-59
2022/12/03 08:38:59;;;;;;;21.70;14.80;;;10.80;58.20;;;;;;5043065;28;20447;-59
2022/12/03 08:44:35;;;;;;;22.27;15.13;;;10.80;58.10;;;;;;5034759;28;20514;-59
2022/12/03 08:47:01;;;;;;;24.30;14.47;;;10.60;57.20;;;;;;5046155;28;20481;-59
2022/12/03 08:49:26;;;;;;;21.33;15.10;;;10.30;57.50;;;;;;5043419;28;20444;-59
2022/12/03 08:51:59;;;;;;;20.17;13.60;;;10.00;57.80;;;;;;5042572;28;20196;-59
2022/12/03 08:54:25;;;;;;;24.17;14.60;;;9.80;58.50;;;;;;5044966;28;20704;-59
2022/12/03 08:56:51;;;;;;;21.13;13.60;;;9.80;59.40;;;;;;5048454;28;20438;-59
2022/12/03 08:59:28;;;;;;;21.20;13.67;;;9.80;59.10;;;;;;5037215;28;20805;-59
2022/12/03 09:01:55;;;;;;;22.23;14.07;;;9.90;59.60;;;;;;5038192;28;20653;-58
2022/12/03 09:04:23;;;;;;;20.67;14.07;;;10.10;58.40;;;;;;5035477;28;20493;-59
2022/12/03 09:06:50;;;;;;;20.40;12.80;;;10.10;57.60;;;;;;5046329;28;20928;-58
2022/12/03 09:09:16;;;;;;;24.60;13.83;;;10.00;57.50;;;;;;5044431;28;20537;-59
2022/12/03 09:11:42;;;;;;;21.80;13.40;;;9.50;58.80;;;;;;5044404;28;20842;-58
2022/12/03 09:14:07;;;;;;;24.87;14.80;;;9.00;59.60;;;;;;5037663;28;20251;-58
2022/12/03 09:16:33;;;;;;;23.70;14.60;;;8.60;61.70;;;;;;5038248;28;20434;-58
2022/12/03 09:18:59;;;;;;;21.47;13.53;;;8.50;61.70;;;;;;5036255;28;20193;-59
2022/12/03 09:21:24;;;;;;;22.13;13.90;;;8.50;62.40;;;;;;5045908;28;20190;-58
2022/12/03 09:23:50;;;;;;;20.77;13.33;;;8.40;62.80;;;;;;5043430;28;20237;-57
2022/12/03 09:26:15;;;;;;;21.97;14.00;;;8.40;62.80;;;;;;5049059;28;20189;-57
2022/12/03 09:28:41;;;;;;;22.20;14.27;;;8.50;62.80;;;;;;5045148;28;20247;-58
2022/12/03 09:31:07;;;;;;;20.63;13.87;;;8.50;62.70;;;;;;5038290;28;20197;-58
2022/12/03 09:33:32;;;;;;;19.63;13.77;;;8.40;62.50;;;;;;5038283;28;20267;-58
2022/12/03 09:35:58;;;;;;;20.93;13.90;;;8.60;62.40;;;;;;5048212;28;20288;-57
2022/12/03 09:38:24;;;;;;;22.67;14.60;;;8.60;62.00;;;;;;5032101;28;20242;-58
2022/12/03 09:40:50;;;;;;;19.17;13.17;;;8.70;61.70;;;;;;5046557;28;20447;-58
2022/12/03 09:43:16;;;;;;;20.40;12.50;;;8.70;61.20;;;;;;5044469;28;20486;-58
2022/12/03 09:45:44;;;;;;;21.07;13.13;;;8.80;61.10;;;;;;5044696;28;20564;-58
2022/12/03 09:48:12;;;;;;;20.97;14.40;;;9.00;60.70;;;;;;5039417;28;20470;-58
2022/12/03 09:50:40;;;;;;;22.67;12.90;;;9.20;60.10;;;;;;5040464;28;20440;-58
2022/12/03 09:53:11;;;;;;;23.00;15.07;;;9.10;60.20;;;;;;5043370;28;20517;-58
2022/12/03 09:55:37;;;;;;;21.77;12.80;;;8.90;60.50;;;;;;5043278;28;20462;-57
2022/12/03 09:58:10;;;;;;;20.50;14.10;;;9.00;61.10;;;;;;5049994;28;20443;-58
2022/12/03 10:00:35;;;;;;;22.20;15.00;;;9.20;60.90;;;;;;5045887;28;20203;-58
2022/12/03 10:03:03;;;;;;;20.73;13.17;;;9.20;60.30;;;;;;5046229;28;21766;-58
2022/12/03 10:05:29;;;;;;;18.40;12.73;;;9.20;60.20;;;;;;5045269;28;20189;-58
2022/12/03 10:08:02;;;;;;;18.70;13.07;;;8.90;59.90;;;;;;5041768;28;20808;-58
2022/12/03 10:10:28;;;;;;;19.97;13.70;;;8.90;59.70;;;;;;5050138;28;20928;-58
2022/12/03 10:12:54;;;;;;;17.73;12.30;;;8.70;59.70;;;;;;5047927;28;20447;-59
2022/12/03 10:15:22;;;;;;;20.00;12.67;;;8.50;60.40;;;;;;5050793;28;20227;-58
2022/12/03 10:17:51;;;;;;;17.90;13.43;;;8.50;61.20;;;;;;5051416;28;20192;-58
2022/12/03 10:20:19;;;;;;;18.70;13.07;;;8.60;60.80;;;;;;5045102;28;20442;-58
2022/12/03 10:22:47;;;;;;;18.93;12.57;;;8.20;61.40;;;;;;5036927;28;20483;-58
2022/12/03 10:25:18;;;;;;;17.50;12.87;;;8.10;62.20;;;;;;5049170;28;20829;-58
2022/12/03 10:27:59;;;;;;;19.83;13.70;;;8.10;62.00;;;;;;5048046;28;20794;-58
2022/12/03 10:30:27;;;;;;;19.83;13.40;;;8.20;61.90;;;;;;5031069;28;20432;-58
2022/12/03 10:32:54;;;;;;;23.47;13.90;;;8.20;62.00;;;;;;5045309;28;20438;-58
2022/12/03 10:35:24;;;;;;;19.30;12.80;;;8.10;62.70;;;;;;5043531;28;20435;-58
2022/12/03 10:38:04;;;;;;;18.77;12.10;;;8.10;62.40;;;;;;5046311;28;20847;-58
2022/12/03 10:40:32;;;;;;;20.87;13.07;;;8.30;62.20;;;;;;5043377;28;20456;-58
2022/12/03 10:43:16;;;;;;;21.67;12.90;;;8.20;61.50;;;;;;5051176;28;20512;-58
2022/12/03 10:45:47;;;;;;;20.70;13.80;;;8.40;61.50;;;;;;5039846;28;20440;-58
2022/12/03 10:48:15;;;;;;;20.13;14.33;;;8.30;61.90;;;;;;5037970;28;20435;-58
2022/12/03 10:50:51;;;;;;;22.53;13.40;;;8.40;62.20;;;;;;5038850;28;20453;-57
2022/12/03 10:53:19;;;;;;;20.90;13.57;;;8.40;61.70;;;;;;5036531;28;20541;-57
2022/12/03 10:55:46;;;;;;;19.13;12.47;;;8.50;61.70;;;;;;5046325;28;20443;-57
2022/12/03 10:58:34;;;;;;;18.53;12.50;;;8.50;60.70;;;;;;5049916;28;20435;-57
2022/12/03 11:01:04;;;;;;;18.43;12.50;;;8.60;60.70;;;;;;5041860;28;20540;-57
2022/12/03 11:03:34;;;;;;;23.03;14.60;;;8.40;61.30;;;;;;5037870;28;20487;-59
2022/12/03 11:06:01;;;;;;;20.37;13.43;;;8.50;61.50;;;;;;5050159;28;20526;-57
2022/12/03 11:08:31;;;;;;;19.47;12.90;;;8.70;61.10;;;;;;5041141;28;20998;-57
2022/12/03 11:11:03;;;;;;;19.57;11.67;;;8.70;60.50;;;;;;5036137;28;20930;-57
2022/12/03 11:13:31;;;;;;;17.33;13.03;;;8.70;60.00;;;;;;5037939;28;20451;-57
2022/12/03 11:15:57;;;;;;;15.50;10.43;;;8.60;60.00;;;;;;5041593;28;20467;-57
2022/12/03 11:18:35;;;;;;;18.37;12.30;;;8.60;60.50;;;;;;5045572;28;20457;-57
2022/12/03 11:21:07;;;;;;;16.50;11.40;;;8.40;60.30;;;;;;5049611;28;21001;-56
2022/12/03 11:23:58;;;;;;;15.90;11.43;;;8.50;61.00;;;;;;5048125;28;20498;-57
2022/12/03 11:26:29;;;;;;;18.50;11.63;;;8.30;60.70;;;;;;5044667;28;20438;-57
2022/12/03 11:28:58;;;;;;;16.80;10.70;;;8.30;61.30;;;;;;5038467;28;20803;-57
2022/12/03 11:31:46;;;;;;;13.10;10.33;;;8.40;61.00;;;;;;5034807;28;20535;-57
2022/12/03 11:34:17;;;;;;;15.30;11.10;;;8.50;60.00;;;;;;5041365;28;20929;-57
2022/12/03 11:37:11;;;;;;;15.77;10.17;;;8.50;59.80;;;;;;5039376;28;20458;-56
2022/12/03 11:39:48;;;;;;;14.43;10.03;;;8.50;59.60;;;;;;5045361;28;20549;-57
2022/12/03 11:42:26;;;;;;;18.17;10.67;;;8.40;59.70;;;;;;5045689;28;20447;-56
2022/12/03 11:45:03;;;;;;;17.20;11.07;;;8.30;60.00;;;;;;5038597;28;20491;-57
2022/12/03 11:47:37;;;;;;;16.70;9.37;;;8.20;60.60;;;;;;5048390;28;20505;-57
2022/12/03 11:50:22;;;;;;;17.27;10.70;;;8.30;60.50;;;;;;5043023;28;20882;-57
2022/12/03 11:53:11;;;;;;;17.73;10.70;;;8.10;60.50;;;;;;5047232;28;20571;-57
2022/12/03 11:55:47;;;;;;;17.83;11.07;;;8.20;60.50;;;;;;5037420;28;20463;-57
2022/12/03 11:58:18;;;;;;;17.50;10.13;;;8.30;60.60;;;;;;5046410;28;20941;-57
2022/12/03 12:00:56;;;;;;;17.50;10.53;;;8.30;60.50;;;;;;5034543;28;21000;-57
2022/12/03 12:03:22;;;;;;;15.17;9.60;;;8.20;60.70;;;;;;5045094;28;20478;-56
2022/12/03 12:06:09;;;;;;;17.70;11.00;;;8.00;60.80;;;;;;5048486;28;20831;-56
2022/12/03 12:08:40;;;;;;;19.23;10.40;;;8.10;61.80;;;;;;5036364;28;20439;-57
2022/12/03 12:11:19;;;;;;;17.50;11.47;;;8.20;60.80;;;;;;5030189;28;20440;-57
2022/12/03 12:13:53;;;;;;;17.53;10.20;;;8.30;60.20;;;;;;5039394;28;20437;-57
2022/12/03 12:16:38;;;;;;;18.23;11.10;;;8.40;60.20;;;;;;5048725;28;20522;-56
2022/12/03 12:19:40;;;;;;;14.53;10.03;;;8.60;60.00;;;;;;5045796;28;20438;-55
2022/12/03 12:22:19;;;;;;;15.73;10.40;;;8.70;59.80;;;;;;5048743;28;20953;-57
2022/12/03 12:24:50;;;;;;;14.30;10.83;;;8.80;59.70;;;;;;5049319;28;20577;-57
2022/12/03 12:27:36;;;;;;;15.27;10.10;;;8.70;59.60;;;;;;5050200;28;20854;-57
2022/12/03 12:30:11;;;;;;;23.43;11.10;;;8.70;59.50;;;;;;5042408;28;20530;-56
2022/12/03 12:33:08;;;;;;;20.90;11.63;;;8.70;59.40;;;;;;5047644;28;20446;-57
2022/12/03 12:35:35;;;;;;;19.17;10.83;;;8.70;59.50;;;;;;5035452;28;20868;-56
2022/12/03 12:38:09;;;;;;;18.23;10.90;;;8.60;59.60;;;;;;5048743;28;20443;-58
2022/12/03 12:40:37;;;;;;;19.50;10.43;;;8.40;59.80;;;;;;5048423;28;20465;-58
2022/12/03 12:43:07;;;;;;;17.23;10.07;;;8.30;60.10;;;;;;5044600;28;20490;-57
2022/12/03 12:45:35;;;;;;;18.07;10.67;;;8.20;60.30;;;;;;5048137;28;20458;-56
2022/12/03 12:48:21;;;;;;;17.47;11.50;;;8.20;61.00;;;;;;5048970;28;20431;-56
2022/12/03 12:50:59;;;;;;;15.47;10.00;;;8.10;60.90;;;;;;5049081;28;20451;-57
2022/12/03 12:53:33;;;;;;;18.20;10.10;;;8.40;60.90;;;;;;5036860;28;20435;-58
2022/12/03 12:56:19;;;;;;;17.70;11.13;;;8.60;63.60;;;;;;5048036;28;20528;-58
2022/12/03 12:58:45;;;;;;;16.30;10.40;;;8.90;64.20;;;;;;5043982;28;20494;-57
2022/12/03 13:01:35;;;;;;;18.30;10.63;;;9.10;61.50;;;;;;5050079;28;20439;-58
2022/12/03 13:04:05;;;;;;;19.33;11.10;;;9.00;60.00;;;;;;5046446;28;20580;-57
2022/12/03 13:06:33;;;;;;;24.00;11.57;;;8.60;60.80;;;;;;5042401;28;20444;-58
2022/12/03 13:09:01;;;;;;;18.50;10.83;;;8.70;61.80;;;;;;5034912;28;21724;-57